createdAt,value
2022-10-12T00:01:46.006Z,8.90
2022-10-12T00:06:49.052Z,8.80
2022-10-12T00:11:52.020Z,8.80
2022-10-12T00:16:56.375Z,8.70
2022-10-12T00:21:59.333Z,8.70
2022-10-12T00:27:02.355Z,8.70
2022-10-12T00:32:06.989Z,8.60
2022-10-12T00:37:09.978Z,8.60
2022-10-12T00:42:13.398Z,8.50
2022-10-12T00:47:31.684Z,8.50
2022-10-12T00:52:41.145Z,8.40
2022-10-12T00:57:47.031Z,8.40
2022-10-12T01:02:54.261Z,8.30
2022-10-12T01:07:57.244Z,8.30
2022-10-12T01:13:01.251Z,8.30
2022-10-12T01:18:12.301Z,8.20
2022-10-12T01:23:50.991Z,8.20
2022-10-12T01:28:59.941Z,8.20
2022-10-12T01:34:11.411Z,8.10
2022-10-12T01:39:21.428Z,8.10
2022-10-12T01:44:25.981Z,8.10
2022-10-12T01:49:33.321Z,8.00
2022-10-12T01:54:47.352Z,8.00
2022-10-12T01:59:59.298Z,8.00
2022-10-12T02:05:11.512Z,7.90
2022-10-12T02:10:17.395Z,7.90
2022-10-12T02:15:24.493Z,7.80
2022-10-12T02:20:28.959Z,7.70
2022-10-12T02:25:34.008Z,7.70
2022-10-12T02:30:44.701Z,7.70
2022-10-12T02:35:53.233Z,7.60
2022-10-12T02:40:59.768Z,7.60
2022-10-12T02:46:05.492Z,7.60
2022-10-12T02:51:12.056Z,7.50
2022-10-12T02:56:16.877Z,7.50
2022-10-12T03:01:19.960Z,7.50
2022-10-12T03:06:24.349Z,7.50
2022-10-12T03:11:27.320Z,7.50
2022-10-12T03:16:30.400Z,7.50
2022-10-12T03:21:34.820Z,7.50
2022-10-12T03:26:37.827Z,7.40
2022-10-12T03:31:40.876Z,7.40
2022-10-12T03:36:45.225Z,7.30
2022-10-12T03:41:48.225Z,7.30
2022-10-12T03:46:51.213Z,7.30
2022-10-12T03:51:55.617Z,7.30
2022-10-12T03:56:58.615Z,7.20
2022-10-12T04:02:01.592Z,7.20
2022-10-12T04:07:05.917Z,7.20
2022-10-12T04:12:08.953Z,7.10
2022-10-12T04:17:11.931Z,7.10
2022-10-12T04:22:16.265Z,7.00
2022-10-12T04:27:19.321Z,7.00
2022-10-12T04:32:22.379Z,7.00
2022-10-12T04:37:27.753Z,7.00
2022-10-12T04:42:30.793Z,6.90
2022-10-12T04:47:35.740Z,7.00
2022-10-12T04:52:40.312Z,6.90
2022-10-12T04:57:44.132Z,6.90
2022-10-12T05:02:47.766Z,6.80
2022-10-12T05:07:52.134Z,6.80
2022-10-12T05:12:55.151Z,6.80
2022-10-12T05:17:58.169Z,6.80
2022-10-12T05:23:02.537Z,6.80
2022-10-12T05:28:06.855Z,6.70
2022-10-12T05:33:09.972Z,6.70
2022-10-12T05:38:14.357Z,6.60
2022-10-12T05:43:17.328Z,6.60
2022-10-12T05:48:20.286Z,6.60
2022-10-12T05:53:25.046Z,6.60
2022-10-12T05:58:29.277Z,6.60
2022-10-12T06:03:35.011Z,6.60
2022-10-12T06:08:39.590Z,6.60
2022-10-12T06:13:42.607Z,6.60
2022-10-12T06:18:45.645Z,6.70
2022-10-12T06:23:50.090Z,6.70
2022-10-12T06:28:53.219Z,6.70
2022-10-12T06:33:56.349Z,6.80
2022-10-12T06:39:00.766Z,6.80
2022-10-12T06:44:03.756Z,6.90
2022-10-12T06:49:06.755Z,7.00
2022-10-12T06:54:11.236Z,7.10
2022-10-12T06:59:14.412Z,7.20
2022-10-12T07:04:17.659Z,7.20
2022-10-12T07:09:22.094Z,7.30
2022-10-12T07:14:25.088Z,7.30
2022-10-12T07:19:28.105Z,7.30
2022-10-12T07:24:36.374Z,7.30
2022-10-12T07:29:40.385Z,7.40
2022-10-12T07:34:44.692Z,7.40
2022-10-12T07:39:49.600Z,7.50
2022-10-12T07:44:52.574Z,7.60
2022-10-12T07:49:55.753Z,7.70
2022-10-12T07:55:00.152Z,7.90
2022-10-12T08:00:03.312Z,8.20
2022-10-12T08:05:14.651Z,8.40
2022-10-12T08:10:19.620Z,8.70
2022-10-12T08:15:22.637Z,8.90
2022-10-12T08:20:25.639Z,9.10
2022-10-12T08:25:30.004Z,9.40
2022-10-12T08:30:34.463Z,9.70
2022-10-12T08:35:39.781Z,10.00
2022-10-12T08:40:49.146Z,10.20
2022-10-12T08:45:54.961Z,10.50
2022-10-12T08:51:02.914Z,10.80
2022-10-12T08:56:09.103Z,11.10
2022-10-12T09:01:20.911Z,11.20
2022-10-12T09:06:29.209Z,11.50
2022-10-12T09:11:49.977Z,11.70
2022-10-12T09:16:55.244Z,11.90
2022-10-12T09:21:59.004Z,12.10
2022-10-12T09:27:15.332Z,12.30
2022-10-12T09:32:47.493Z,12.50
2022-10-12T09:37:54.246Z,12.70
2022-10-12T09:43:00.443Z,12.90
2022-10-12T09:48:18.730Z,13.10
2022-10-12T09:53:27.248Z,13.30
2022-10-12T09:58:35.917Z,13.50
2022-10-12T10:03:38.912Z,13.80
2022-10-12T10:08:43.607Z,14.00
2022-10-12T10:13:52.025Z,14.20
2022-10-12T10:19:02.943Z,14.40
2022-10-12T10:24:07.766Z,14.50
2022-10-12T10:29:30.688Z,14.80
2022-10-12T10:34:33.618Z,15.00
2022-10-12T10:39:46.135Z,15.20
2022-10-12T10:44:54.105Z,15.40
2022-10-12T10:49:59.154Z,15.60
2022-10-12T10:55:16.326Z,15.80
2022-10-12T11:00:40.113Z,16.00
2022-10-12T11:05:47.698Z,16.20
2022-10-12T11:10:55.738Z,16.50
2022-10-12T11:16:04.667Z,16.60
2022-10-12T11:21:14.206Z,16.80
2022-10-12T11:26:24.167Z,16.90
2022-10-12T11:31:33.100Z,17.00
2022-10-12T11:36:44.303Z,17.00
2022-10-12T11:42:20.861Z,17.10
2022-10-12T11:47:33.344Z,17.20
2022-10-12T11:52:41.983Z,17.30
2022-10-12T11:57:45.402Z,17.40
2022-10-12T12:02:55.299Z,17.50
2022-10-12T12:07:58.408Z,17.60
2022-10-12T12:13:12.820Z,17.70
2022-10-12T12:18:19.456Z,17.90
2022-10-12T12:23:25.827Z,18.00
2022-10-12T12:28:29.596Z,18.10
2022-10-12T12:33:36.109Z,18.30
2022-10-12T12:38:41.491Z,18.30
2022-10-12T12:44:00.335Z,18.40
2022-10-12T12:49:07.382Z,18.50
2022-10-12T12:54:20.962Z,18.50
2022-10-12T12:59:48.790Z,18.50
2022-10-12T13:05:17.039Z,18.50
2022-10-12T13:10:33.177Z,18.60
2022-10-12T13:15:47.679Z,18.70
2022-10-12T13:20:52.305Z,18.90
2022-10-12T13:26:00.394Z,19.00
2022-10-12T13:31:06.854Z,19.10
2022-10-12T13:36:21.591Z,19.20
2022-10-12T13:41:26.778Z,19.30
2022-10-12T13:46:40.641Z,19.30
2022-10-12T13:51:47.200Z,19.30
2022-10-12T13:56:53.971Z,19.40
2022-10-12T14:02:00.703Z,19.40
2022-10-12T14:07:08.375Z,19.50
2022-10-12T14:12:12.935Z,19.50
2022-10-12T14:17:16.709Z,19.50
2022-10-12T14:22:26.052Z,19.50
2022-10-12T14:27:30.165Z,19.50
2022-10-12T14:32:44.113Z,19.40
2022-10-12T14:37:50.099Z,19.40
2022-10-12T14:42:59.940Z,19.40
2022-10-12T14:48:05.006Z,19.30
2022-10-12T14:53:13.423Z,19.30
2022-10-12T14:58:18.176Z,19.20
2022-10-12T15:03:21.127Z,19.20
2022-10-12T15:08:25.462Z,19.20
2022-10-12T15:13:28.485Z,19.10
2022-10-12T15:18:31.432Z,19.10
2022-10-12T15:23:35.754Z,19.10
2022-10-12T15:28:38.776Z,19.10
2022-10-12T15:33:42.500Z,19.00
2022-10-12T15:38:46.798Z,19.00
2022-10-12T15:43:50.044Z,18.90
2022-10-12T15:48:53.014Z,18.90
2022-10-12T15:53:57.498Z,18.90
2022-10-12T15:59:00.495Z,18.80
2022-10-12T16:04:03.832Z,18.80
2022-10-12T16:09:08.285Z,18.70
2022-10-12T16:14:12.433Z,18.60
2022-10-12T16:19:15.364Z,18.60
2022-10-12T16:24:19.765Z,18.50
2022-10-12T16:29:22.748Z,18.40
2022-10-12T16:34:25.719Z,18.30
2022-10-12T16:39:30.167Z,18.30
2022-10-12T16:44:33.346Z,18.10
2022-10-12T16:49:36.295Z,18.00
2022-10-12T16:54:40.901Z,17.90
2022-10-12T16:59:43.865Z,17.70
2022-10-12T17:04:47.546Z,17.60
2022-10-12T17:09:52.277Z,17.40
2022-10-12T17:14:55.215Z,17.30
2022-10-12T17:19:58.178Z,17.10
2022-10-12T17:25:02.537Z,17.00
2022-10-12T17:30:06.078Z,16.90
2022-10-12T17:35:09.462Z,16.70
2022-10-12T17:40:13.869Z,16.50
2022-10-12T17:45:17.051Z,16.40
2022-10-12T17:50:20.602Z,16.20
2022-10-12T17:55:46.936Z,16.20
2022-10-12T18:00:48.406Z,16.00
2022-10-12T18:05:51.338Z,15.90
2022-10-12T18:10:55.586Z,15.80
2022-10-12T18:15:59.789Z,15.80
2022-10-12T18:21:06.221Z,15.60
2022-10-12T18:26:12.738Z,15.60
2022-10-12T18:31:21.136Z,15.50
2022-10-12T18:36:24.116Z,15.50
2022-10-12T18:41:30.774Z,15.40
2022-10-12T18:46:37.133Z,15.40
2022-10-12T18:51:42.274Z,15.30
2022-10-12T18:56:46.698Z,15.20
2022-10-12T19:01:49.703Z,15.10
2022-10-12T19:06:57.616Z,15.00
2022-10-12T19:12:02.599Z,14.90
2022-10-12T19:17:05.517Z,14.80
2022-10-12T19:22:08.609Z,14.70
2022-10-12T19:27:12.954Z,14.60
2022-10-12T19:32:16.287Z,14.50
2022-10-12T19:37:19.573Z,14.40
2022-10-12T19:42:24.732Z,14.30
2022-10-12T19:47:27.836Z,14.20
2022-10-12T19:52:31.956Z,14.10
2022-10-12T19:57:38.745Z,13.90
2022-10-12T20:02:42.940Z,13.90
2022-10-12T20:07:45.883Z,13.80
2022-10-12T20:12:50.228Z,13.70
2022-10-12T20:17:53.860Z,13.60
2022-10-12T20:22:57.907Z,13.60
2022-10-12T20:28:02.887Z,13.50
2022-10-12T20:33:06.791Z,13.40
2022-10-12T20:38:11.476Z,13.40
2022-10-12T20:43:16.409Z,13.30
2022-10-12T20:48:19.378Z,13.30
2022-10-12T20:53:22.276Z,13.20
2022-10-12T20:58:28.215Z,13.20
2022-10-12T21:03:31.375Z,13.10
2022-10-12T21:08:35.959Z,13.10
2022-10-12T21:13:42.075Z,13.00
2022-10-12T21:18:47.330Z,12.90
2022-10-12T21:23:54.518Z,12.80
2022-10-12T21:28:59.366Z,12.80
2022-10-12T21:34:04.597Z,12.60
2022-10-12T21:39:11.765Z,12.50
2022-10-12T21:44:17.147Z,12.50
2022-10-12T21:49:20.612Z,12.40
2022-10-12T21:54:23.525Z,12.30
2022-10-12T21:59:28.464Z,12.20
2022-10-12T22:04:31.932Z,12.20
2022-10-12T22:09:36.139Z,12.10
2022-10-12T22:14:40.563Z,12.00
2022-10-12T22:19:45.235Z,11.90
2022-10-12T22:24:49.374Z,11.90
2022-10-12T22:29:54.592Z,11.80
2022-10-12T22:34:59.130Z,11.80
2022-10-12T22:40:02.570Z,11.80
2022-10-12T22:45:07.701Z,11.80
2022-10-12T22:50:10.907Z,11.80
2022-10-12T22:55:13.903Z,11.70
2022-10-12T23:00:20.127Z,11.80
2022-10-12T23:05:23.297Z,11.70
2022-10-12T23:10:27.467Z,11.70
2022-10-12T23:15:31.767Z,11.70
2022-10-12T23:20:36.534Z,11.60
2022-10-12T23:25:39.601Z,11.50
2022-10-12T23:30:44.694Z,11.50
2022-10-12T23:35:55.051Z,11.40
2022-10-12T23:40:58.433Z,11.30
2022-10-12T23:46:04.776Z,11.30
2022-10-12T23:51:08.352Z,11.10
2022-10-12T23:56:11.740Z,11.10
